TimeBST,TemperatureF,Dew PointF,Humidity,Sea Level PressureIn,VisibilityMPH,Wind Direction,Wind SpeedMPH,Gust SpeedMPH,PrecipitationIn,Events,Conditions,WindDirDegrees,DateUTC
12:20 AM,55.4,50.0,82,30.12,6.2,West,9.2,-,N/A,,Scattered Clouds,270,2013-08-09 23:20:00
12:50 AM,55.4,48.2,77,30.12,6.2,West,8.1,-,N/A,,Mostly Cloudy,260,2013-08-09 23:50:00
1:20 AM,53.6,48.2,82,30.12,6.2,WSW,8.1,-,N/A,,Mostly Cloudy,250,2013-08-10 00:20:00
1:50 AM,53.6,48.2,82,30.12,6.2,WSW,4.6,-,N/A,,Mostly Cloudy,250,2013-08-10 00:50:00
2:20 AM,53.6,48.2,82,30.12,6.2,Calm,Calm,-,N/A,,Mostly Cloudy,0,2013-08-10 01:20:00
2:50 AM,53.6,50.0,88,30.12,6.2,NNW,3.5,-,N/A,,Mostly Cloudy,330,2013-08-10 01:50:00
3:20 AM,53.6,50.0,88,30.12,6.2,SW,4.6,-,N/A,,Mostly Cloudy,230,2013-08-10 02:20:00
3:50 AM,53.6,50.0,88,30.12,6.2,Variable,3.5,-,N/A,,Mostly Cloudy,0,2013-08-10 02:50:00
4:20 AM,51.8,50.0,94,30.12,-9999.0,Calm,Calm,-,N/A,,Clear,0,2013-08-10 03:20:00
4:50 AM,51.8,48.2,88,30.12,-9999.0,Calm,Calm,-,N/A,,Clear,0,2013-08-10 03:50:00
5:20 AM,50.0,48.2,94,30.12,-9999.0,Calm,Calm,-,N/A,,Clear,0,2013-08-10 04:20:00
5:50 AM,51.8,50.0,94,30.12,6.2,West,3.5,-,N/A,,Partly Cloudy,260,2013-08-10 04:50:00
6:20 AM,51.8,50.0,94,30.12,6.2,Calm,Calm,-,N/A,,Partly Cloudy,0,2013-08-10 05:20:00
6:50 AM,53.6,50.0,88,30.12,6.2,Calm,Calm,-,N/A,,Scattered Clouds,0,2013-08-10 05:50:00
7:20 AM,53.6,51.8,94,30.09,6.2,Variable,2.3,-,N/A,,Partly Cloudy,0,2013-08-10 06:20:00
7:50 AM,55.4,51.8,88,30.09,6.2,Variable,2.3,-,N/A,,Partly Cloudy,0,2013-08-10 06:50:00
8:20 AM,57.2,50.0,77,30.12,6.2,WSW,5.8,-,N/A,,Scattered Clouds,250,2013-08-10 07:20:00
8:50 AM,55.4,50.0,82,30.12,6.2,SW,8.1,-,N/A,,Partly Cloudy,230,2013-08-10 07:50:00
9:20 AM,59.0,50.0,72,30.12,6.2,SW,9.2,-,N/A,,Scattered Clouds,220,2013-08-10 08:20:00
9:50 AM,57.2,50.0,77,30.12,6.2,WSW,10.4,-,N/A,,Mostly Cloudy,250,2013-08-10 08:50:00
10:20 AM,57.2,51.8,82,30.12,6.2,SW,12.7,-,N/A,,Mostly Cloudy,230,2013-08-10 09:20:00
10:50 AM,59.0,50.0,72,30.12,6.2,SW,10.4,-,N/A,,Mostly Cloudy,230,2013-08-10 09:50:00
11:20 AM,59.0,51.8,77,30.09,6.2,SW,9.2,-,N/A,,Mostly Cloudy,220,2013-08-10 10:20:00
11:50 AM,59.0,50.0,72,30.09,6.2,SW,12.7,-,N/A,,Mostly Cloudy,230,2013-08-10 10:50:00
12:20 PM,59.0,50.0,72,30.09,6.2,SW,11.5,-,N/A,,Mostly Cloudy,230,2013-08-10 11:20:00
12:50 PM,62.6,50.0,63,30.09,6.2,SW,15.0,-,N/A,,Mostly Cloudy,220,2013-08-10 11:50:00
1:20 PM,62.6,50.0,63,30.09,6.2,SW,13.8,-,N/A,,Mostly Cloudy,220,2013-08-10 12:20:00
1:50 PM,62.6,51.8,68,30.09,6.2,WSW,15.0,-,N/A,,Scattered Clouds,240,2013-08-10 12:50:00
2:20 PM,62.6,50.0,63,30.09,6.2,SW,13.8,-,N/A,,Partly Cloudy,230,2013-08-10 13:20:00
2:50 PM,60.8,50.0,68,30.06,6.2,SW,13.8,-,N/A,,Partly Cloudy,230,2013-08-10 13:50:00
3:20 PM,62.6,51.8,68,30.06,6.2,WSW,12.7,-,N/A,,Partly Cloudy,240,2013-08-10 14:20:00
3:50 PM,62.6,51.8,68,30.06,6.2,SW,10.4,-,N/A,,Scattered Clouds,230,2013-08-10 14:50:00
4:20 PM,60.8,50.0,68,30.06,6.2,WSW,11.5,-,N/A,,Mostly Cloudy,250,2013-08-10 15:20:00
4:50 PM,60.8,50.0,68,30.06,6.2,West,9.2,-,N/A,,Mostly Cloudy,260,2013-08-10 15:50:00
5:20 PM,60.8,50.0,68,30.04,6.2,WSW,12.7,-,N/A,,Mostly Cloudy,240,2013-08-10 16:20:00
5:50 PM,59.0,50.0,72,30.04,6.2,SW,13.8,-,N/A,,Mostly Cloudy,230,2013-08-10 16:50:00
6:20 PM,59.0,51.8,77,30.04,6.2,WSW,11.5,-,N/A,,Scattered Clouds,240,2013-08-10 17:20:00
6:50 PM,60.8,51.8,72,30.04,6.2,WSW,9.2,-,N/A,,Scattered Clouds,240,2013-08-10 17:50:00
7:20 PM,60.8,51.8,72,30.04,6.2,WSW,9.2,-,N/A,,Scattered Clouds,250,2013-08-10 18:20:00
7:50 PM,59.0,51.8,77,30.01,6.2,WSW,8.1,-,N/A,,Partly Cloudy,240,2013-08-10 18:50:00
8:20 PM,59.0,51.8,77,30.01,6.2,WSW,8.1,-,N/A,,Mostly Cloudy,240,2013-08-10 19:20:00
8:50 PM,59.0,51.8,77,30.01,6.2,West,6.9,-,N/A,,Mostly Cloudy,260,2013-08-10 19:50:00
9:20 PM,55.4,51.8,88,30.01,6.2,SW,10.4,-,N/A,Rain,Light Rain,230,2013-08-10 20:20:00
9:50 PM,53.6,51.8,94,30.01,4.3,WSW,6.9,-,N/A,,Drizzle,240,2013-08-10 20:50:00
10:20 PM,53.6,51.8,94,30.01,5.0,SW,6.9,-,N/A,Rain,Light Rain,230,2013-08-10 21:20:00
10:50 PM,53.6,50.0,88,30.01,6.2,SW,5.8,-,N/A,,Light Drizzle,230,2013-08-10 21:50:00
11:20 PM,53.6,50.0,88,30.01,6.2,WSW,4.6,-,N/A,,Mostly Cloudy,240,2013-08-10 22:20:00
11:50 PM,51.8,50.0,94,29.98,6.2,Variable,3.5,-,N/A,,Mostly Cloudy,0,2013-08-10 22:50:00